createdAt,value
2019-05-29T00:01:17.740Z,1.75
2019-05-29T00:03:42.091Z,1.82
2019-05-29T00:06:10.640Z,1.87
2019-05-29T00:08:39.565Z,2.15
2019-05-29T00:11:08.109Z,3.77
2019-05-29T00:13:36.871Z,1.90
2019-05-29T00:16:06.209Z,3.62
2019-05-29T00:18:34.683Z,2.87
2019-05-29T00:21:03.371Z,2.02
2019-05-29T00:23:33.153Z,3.87
2019-05-29T00:26:02.082Z,2.35
2019-05-29T00:28:30.745Z,3.30
2019-05-29T00:30:59.445Z,1.80
2019-05-29T00:33:27.948Z,3.62
2019-05-29T00:35:56.538Z,2.33
2019-05-29T00:38:25.317Z,2.45
2019-05-29T00:40:54.411Z,5.17
2019-05-29T00:43:23.406Z,2.45
2019-05-29T00:45:52.990Z,2.42
2019-05-29T00:48:21.548Z,2.10
2019-05-29T00:50:50.158Z,2.02
2019-05-29T00:53:19.838Z,4.58
2019-05-29T00:55:49.497Z,2.92
2019-05-29T00:58:19.811Z,3.00
2019-05-29T01:00:48.509Z,4.78
2019-05-29T01:03:17.912Z,2.80
2019-05-29T01:05:46.487Z,4.22
2019-05-29T01:08:16.425Z,2.72
2019-05-29T01:10:45.182Z,2.95
2019-05-29T01:13:13.668Z,4.12
2019-05-29T01:15:42.325Z,2.67
2019-05-29T01:18:11.719Z,2.50
2019-05-29T01:20:40.607Z,2.72
2019-05-29T01:23:10.179Z,2.92
2019-05-29T01:25:39.088Z,3.02
2019-05-29T01:28:07.816Z,3.12
2019-05-29T01:30:36.507Z,2.15
2019-05-29T01:33:05.519Z,4.70
2019-05-29T01:35:34.624Z,4.30
2019-05-29T01:38:03.209Z,2.55
2019-05-29T01:40:32.739Z,3.95
2019-05-29T01:43:01.317Z,3.10
2019-05-29T01:45:30.301Z,4.80
2019-05-29T01:47:58.862Z,3.50
2019-05-29T01:50:27.924Z,3.83
2019-05-29T01:52:56.572Z,3.30
2019-05-29T01:55:25.119Z,2.95
2019-05-29T01:57:53.775Z,3.10
2019-05-29T02:00:24.217Z,4.33
2019-05-29T02:02:52.820Z,2.42
2019-05-29T02:05:22.016Z,3.35
2019-05-29T02:07:51.057Z,3.37
2019-05-29T02:10:20.298Z,4.15
2019-05-29T02:12:49.252Z,3.80
2019-05-29T02:15:25.973Z,3.77
2019-05-29T02:17:48.600Z,3.12
2019-05-29T02:20:19.009Z,3.70
2019-05-29T02:22:47.760Z,1.70
2019-05-29T02:25:19.173Z,1.72
2019-05-29T02:27:48.237Z,1.97
2019-05-29T02:30:18.786Z,1.62
2019-05-29T02:32:47.970Z,4.80
2019-05-29T02:35:17.959Z,3.50
2019-05-29T02:37:46.595Z,2.50
2019-05-29T02:40:15.249Z,3.72
2019-05-29T02:42:44.186Z,3.22
2019-05-29T02:45:19.605Z,4.15
2019-05-29T02:47:48.557Z,2.58
2019-05-29T02:50:17.270Z,3.70
2019-05-29T02:52:45.819Z,3.10
2019-05-29T02:55:15.483Z,7.55
2019-05-29T02:57:44.144Z,3.58
2019-05-29T03:00:13.449Z,3.45
2019-05-29T03:02:42.307Z,4.20
2019-05-29T03:05:11.942Z,4.15
2019-05-29T03:07:40.662Z,4.85
2019-05-29T03:10:10.027Z,4.25
2019-05-29T03:12:39.515Z,2.80
2019-05-29T03:15:08.566Z,2.27
2019-05-29T03:17:37.228Z,4.33
2019-05-29T03:20:09.244Z,4.78
2019-05-29T03:22:37.974Z,2.90
2019-05-29T03:25:07.779Z,2.50
2019-05-29T03:27:38.040Z,2.35
2019-05-29T03:30:08.017Z,3.30
2019-05-29T03:32:43.507Z,4.03
2019-05-29T03:35:07.264Z,5.47
2019-05-29T03:37:36.223Z,3.85
2019-05-29T03:40:08.237Z,4.70
2019-05-29T03:42:38.714Z,4.40
2019-05-29T03:45:07.300Z,4.85
2019-05-29T03:47:37.148Z,4.28
2019-05-29T03:50:09.088Z,5.22
2019-05-29T03:52:38.806Z,3.83
2019-05-29T03:55:07.829Z,5.15
2019-05-29T03:57:37.828Z,4.08
2019-05-29T04:00:08.687Z,5.75
2019-05-29T04:02:38.143Z,4.90
2019-05-29T04:05:09.183Z,4.00
2019-05-29T04:07:38.544Z,5.25
2019-05-29T04:10:08.528Z,7.10
2019-05-29T04:12:38.095Z,3.55
2019-05-29T04:15:09.439Z,6.58
2019-05-29T04:17:39.864Z,3.33
2019-05-29T04:20:08.851Z,5.12
2019-05-29T04:22:43.551Z,7.42
2019-05-29T04:25:14.058Z,3.70
2019-05-29T04:27:43.230Z,4.45
2019-05-29T04:30:12.480Z,5.67
2019-05-29T04:32:41.391Z,5.22
2019-05-29T04:35:10.045Z,6.17
2019-05-29T04:37:39.953Z,4.80
2019-05-29T04:40:10.120Z,5.85
2019-05-29T04:42:40.037Z,7.17
2019-05-29T04:45:10.176Z,6.42
2019-05-29T04:47:39.602Z,5.47
2019-05-29T04:50:08.980Z,11.28
2019-05-29T04:52:38.414Z,8.73
2019-05-29T04:55:08.364Z,9.35
2019-05-29T04:57:37.468Z,7.53
2019-05-29T05:00:07.843Z,6.10
2019-05-29T05:02:37.296Z,9.58
2019-05-29T05:05:10.008Z,10.53
2019-05-29T05:07:39.624Z,9.10
2019-05-29T05:10:08.666Z,9.30
2019-05-29T05:12:37.833Z,14.43
2019-05-29T05:15:07.582Z,12.28
2019-05-29T05:17:36.242Z,11.85
2019-05-29T05:20:06.030Z,10.03
2019-05-29T05:22:34.678Z,10.98
2019-05-29T05:25:04.542Z,10.03
2019-05-29T05:27:34.147Z,9.35
2019-05-29T05:30:03.052Z,10.63
2019-05-29T05:32:32.616Z,9.98
2019-05-29T05:35:01.705Z,7.40
2019-05-29T05:37:30.631Z,10.55
2019-05-29T05:39:59.354Z,8.15
2019-05-29T05:42:28.523Z,7.85
2019-05-29T05:44:57.199Z,8.15
2019-05-29T05:47:43.104Z,9.73
2019-05-29T05:49:56.150Z,10.75
2019-05-29T05:52:25.003Z,9.70
2019-05-29T05:54:53.563Z,9.73
2019-05-29T05:57:22.189Z,8.70
2019-05-29T05:59:50.762Z,5.85
2019-05-29T06:02:20.056Z,11.78
2019-05-29T06:04:48.609Z,9.83
2019-05-29T06:07:17.195Z,7.97
2019-05-29T06:09:45.823Z,9.08
2019-05-29T06:12:14.770Z,15.15
2019-05-29T06:14:43.457Z,6.97
2019-05-29T06:17:12.534Z,6.35
2019-05-29T06:19:43.135Z,7.53
2019-05-29T06:22:12.371Z,8.25
2019-05-29T06:24:41.159Z,6.65
2019-05-29T06:27:09.782Z,12.30
2019-05-29T06:29:39.376Z,4.70
2019-05-29T06:32:08.677Z,5.42
2019-05-29T06:34:37.536Z,3.80
2019-05-29T06:37:06.274Z,5.33
2019-05-29T06:39:35.579Z,6.30
2019-05-29T06:42:05.724Z,8.40
2019-05-29T06:44:36.404Z,7.33
2019-05-29T06:47:06.478Z,3.52
2019-05-29T06:49:35.924Z,3.52
2019-05-29T06:52:04.803Z,3.72
2019-05-29T06:54:33.491Z,4.37
2019-05-29T06:57:02.203Z,3.62
2019-05-29T06:59:31.332Z,4.12
2019-05-29T07:01:59.967Z,4.00
2019-05-29T07:04:28.575Z,4.22
2019-05-29T07:06:58.125Z,7.90
2019-05-29T07:09:26.763Z,6.55
2019-05-29T07:11:55.379Z,4.50
2019-05-29T07:14:24.010Z,9.10
2019-05-29T07:16:56.192Z,2.85
2019-05-29T07:19:29.435Z,3.85
2019-05-29T07:21:53.191Z,3.92
2019-05-29T07:24:22.188Z,6.15
2019-05-29T07:26:51.178Z,4.08
2019-05-29T07:29:19.776Z,4.65
2019-05-29T07:31:48.465Z,1.50
2019-05-29T07:34:17.431Z,3.30
2019-05-29T07:36:46.090Z,4.87
2019-05-29T07:39:14.737Z,2.62
2019-05-29T07:41:43.790Z,4.55
2019-05-29T07:44:12.938Z,3.17
2019-05-29T07:46:42.273Z,3.92
2019-05-29T07:49:12.339Z,3.52
2019-05-29T07:51:43.102Z,2.40
2019-05-29T07:54:11.245Z,2.45
2019-05-29T07:56:40.391Z,2.40
2019-05-29T07:59:09.018Z,4.42
2019-05-29T08:01:38.569Z,4.25
2019-05-29T08:04:07.394Z,3.05
2019-05-29T08:06:35.986Z,3.58
2019-05-29T08:09:07.640Z,3.98
2019-05-29T08:11:55.570Z,5.95
2019-05-29T08:14:24.551Z,2.83
2019-05-29T08:16:54.236Z,4.85
2019-05-29T08:19:23.258Z,3.40
2019-05-29T08:21:51.843Z,3.60
2019-05-29T08:24:24.601Z,1.82
2019-05-29T08:26:51.183Z,2.37
2019-05-29T08:29:19.856Z,3.92
2019-05-29T08:31:48.952Z,4.05
2019-05-29T08:34:17.744Z,3.75
2019-05-29T08:37:00.011Z,4.50
2019-05-29T08:39:33.379Z,4.75
2019-05-29T08:42:05.978Z,3.47
2019-05-29T08:44:17.782Z,2.98
2019-05-29T08:47:01.490Z,2.58
2019-05-29T08:49:16.797Z,2.90
2019-05-29T08:51:46.007Z,3.92
2019-05-29T08:54:24.017Z,3.15
2019-05-29T08:56:46.239Z,6.35
2019-05-29T08:59:14.952Z,2.87
2019-05-29T09:01:44.985Z,6.00
2019-05-29T09:04:13.719Z,2.92
2019-05-29T09:06:43.024Z,2.22
2019-05-29T09:09:11.744Z,3.33
2019-05-29T09:11:40.370Z,4.60
2019-05-29T09:14:09.026Z,2.67
2019-05-29T09:16:37.942Z,2.77
2019-05-29T09:19:07.060Z,3.08
2019-05-29T09:21:35.829Z,5.00
2019-05-29T09:24:04.655Z,3.33
2019-05-29T09:26:33.739Z,1.87
2019-05-29T09:29:02.429Z,1.80
2019-05-29T09:31:31.117Z,4.15
2019-05-29T09:33:59.748Z,2.55
2019-05-29T09:36:28.478Z,3.00
2019-05-29T09:38:57.501Z,3.25
2019-05-29T09:41:26.360Z,2.87
2019-05-29T09:43:59.748Z,3.65
2019-05-29T09:46:25.869Z,2.70
2019-05-29T09:48:54.610Z,3.83
2019-05-29T09:51:24.173Z,2.60
2019-05-29T09:53:54.338Z,2.12
2019-05-29T09:56:23.039Z,2.75
2019-05-29T09:58:53.618Z,2.33
2019-05-29T10:01:24.294Z,3.37
2019-05-29T10:03:53.449Z,1.75
2019-05-29T10:06:23.048Z,3.02
2019-05-29T10:08:51.779Z,2.05
2019-05-29T10:11:20.543Z,2.30
2019-05-29T10:13:49.450Z,3.47
2019-05-29T10:16:18.467Z,2.17
2019-05-29T10:18:47.378Z,2.33
2019-05-29T10:21:16.311Z,1.98
2019-05-29T10:23:45.215Z,4.25
2019-05-29T10:26:14.123Z,3.35
2019-05-29T10:28:55.788Z,2.77
2019-05-29T10:31:13.026Z,2.90
2019-05-29T10:33:42.403Z,2.33
2019-05-29T10:36:11.233Z,2.87
2019-05-29T10:38:40.351Z,2.58
2019-05-29T10:41:09.041Z,2.87
2019-05-29T10:43:37.831Z,2.50
2019-05-29T10:46:06.990Z,3.40
2019-05-29T10:48:35.667Z,2.70
2019-05-29T10:51:04.860Z,2.33
2019-05-29T10:53:33.815Z,3.05
2019-05-29T10:56:02.590Z,4.95
2019-05-29T10:58:47.661Z,5.72
2019-05-29T11:01:02.026Z,2.98
2019-05-29T11:03:31.076Z,1.87
2019-05-29T11:05:59.723Z,3.50
2019-05-29T11:08:28.322Z,2.17
2019-05-29T11:10:56.913Z,2.40
2019-05-29T11:13:25.939Z,2.42
2019-05-29T11:15:55.129Z,4.40
2019-05-29T11:18:23.786Z,2.58
2019-05-29T11:20:53.464Z,2.83
2019-05-29T11:23:22.508Z,2.80
2019-05-29T11:25:52.102Z,3.47
2019-05-29T11:28:20.830Z,2.33
2019-05-29T11:30:51.927Z,3.30
2019-05-29T11:33:19.901Z,3.65
2019-05-29T11:36:03.244Z,2.95
2019-05-29T11:38:18.835Z,3.33
2019-05-29T11:40:47.657Z,3.12
2019-05-29T11:43:16.275Z,3.37
2019-05-29T11:45:44.907Z,5.03
2019-05-29T11:48:13.542Z,4.25
2019-05-29T11:50:42.114Z,2.25
2019-05-29T11:53:11.012Z,2.75
2019-05-29T11:55:40.015Z,4.50
2019-05-29T11:58:08.761Z,3.58
2019-05-29T12:00:37.497Z,3.77
2019-05-29T12:03:06.880Z,3.75
2019-05-29T12:05:35.979Z,2.47
2019-05-29T12:08:04.758Z,2.33
2019-05-29T12:10:34.002Z,2.95
2019-05-29T12:13:02.964Z,2.80
2019-05-29T12:15:32.367Z,1.52
2019-05-29T12:18:19.964Z,1.37
2019-05-29T12:20:31.488Z,6.97
2019-05-29T12:23:22.944Z,4.12
2019-05-29T12:25:31.694Z,3.12
2019-05-29T12:28:01.348Z,1.70
2019-05-29T12:30:30.411Z,2.37
2019-05-29T12:32:59.187Z,1.27
2019-05-29T12:35:27.988Z,2.50
2019-05-29T12:37:57.330Z,2.27
2019-05-29T12:40:26.155Z,2.83
2019-05-29T12:42:55.654Z,2.72
2019-05-29T12:45:24.767Z,1.65
2019-05-29T12:47:54.305Z,2.87
2019-05-29T12:50:23.527Z,2.15
2019-05-29T12:52:53.485Z,1.40
2019-05-29T12:55:22.806Z,1.90
2019-05-29T12:57:51.835Z,3.05
2019-05-29T13:00:21.516Z,3.70
2019-05-29T13:02:50.196Z,2.60
2019-05-29T13:05:20.739Z,2.67
2019-05-29T13:07:49.658Z,1.65
2019-05-29T13:10:29.954Z,2.83
2019-05-29T13:12:50.362Z,2.77
2019-05-29T13:15:20.136Z,2.02
2019-05-29T13:17:48.843Z,4.00
2019-05-29T13:20:22.067Z,3.65
2019-05-29T13:22:49.743Z,3.72
2019-05-29T13:25:18.671Z,2.85
2019-05-29T13:27:47.583Z,2.27
2019-05-29T13:30:18.829Z,3.37
2019-05-29T13:32:47.731Z,4.67
2019-05-29T13:35:21.063Z,2.92
2019-05-29T13:37:47.387Z,2.52
2019-05-29T13:40:16.322Z,3.08
2019-05-29T13:42:45.086Z,2.90
2019-05-29T13:45:18.182Z,4.08
2019-05-29T13:47:45.221Z,2.12
2019-05-29T13:50:15.566Z,2.85
2019-05-29T13:52:44.188Z,2.00
2019-05-29T13:55:13.596Z,4.62
2019-05-29T13:57:42.435Z,3.25
2019-05-29T14:00:32.423Z,4.33
2019-05-29T14:02:44.859Z,4.55
2019-05-29T14:05:15.590Z,2.27
2019-05-29T14:07:44.493Z,4.65
2019-05-29T14:10:13.464Z,1.42
2019-05-29T14:12:42.126Z,2.77
2019-05-29T14:15:12.445Z,4.45
2019-05-29T14:17:41.188Z,3.15
2019-05-29T14:20:10.992Z,2.17
2019-05-29T14:22:40.283Z,3.12
2019-05-29T14:25:11.525Z,2.83
2019-05-29T14:27:40.932Z,1.98
2019-05-29T14:30:11.518Z,2.92
2019-05-29T14:32:40.633Z,3.33
2019-05-29T14:35:10.985Z,2.33
2019-05-29T14:37:40.018Z,2.27
2019-05-29T14:40:10.303Z,2.62
2019-05-29T14:42:39.424Z,3.02
2019-05-29T14:45:10.168Z,4.08
2019-05-29T14:47:39.468Z,3.55
2019-05-29T14:50:08.923Z,2.42
2019-05-29T14:52:37.921Z,2.20
2019-05-29T14:55:09.029Z,1.90
2019-05-29T14:57:38.424Z,5.37
2019-05-29T15:00:22.324Z,2.87
2019-05-29T15:02:39.294Z,2.10
2019-05-29T15:05:09.753Z,2.50
2019-05-29T15:07:39.110Z,1.95
2019-05-29T15:10:21.745Z,1.90
2019-05-29T15:12:39.088Z,2.37
2019-05-29T15:15:11.069Z,2.22
2019-05-29T15:17:39.836Z,3.65
2019-05-29T15:20:14.301Z,3.02
2019-05-29T15:22:42.798Z,3.98
2019-05-29T15:25:19.930Z,1.92
2019-05-29T15:27:41.856Z,1.80
2019-05-29T15:30:14.734Z,2.40
2019-05-29T15:32:41.901Z,2.25
2019-05-29T15:35:14.520Z,3.05
2019-05-29T15:37:41.194Z,2.00
2019-05-29T15:40:11.130Z,3.27
2019-05-29T15:42:40.115Z,2.35
2019-05-29T15:45:11.815Z,4.03
2019-05-29T15:47:41.065Z,2.57
2019-05-29T15:50:11.542Z,1.77
2019-05-29T15:52:40.827Z,2.12
2019-05-29T15:55:27.035Z,3.20
2019-05-29T15:57:40.039Z,2.75
2019-05-29T16:00:11.351Z,3.58
2019-05-29T16:02:40.602Z,1.75
2019-05-29T16:05:12.934Z,4.75
2019-05-29T16:10:14.413Z,5.53
2019-05-29T16:12:41.865Z,1.85
2019-05-29T16:15:11.405Z,7.22
2019-05-29T16:17:40.035Z,3.00
2019-05-29T16:20:10.526Z,3.15
2019-05-29T16:22:39.677Z,2.02
2019-05-29T16:25:09.152Z,2.22
2019-05-29T16:27:37.783Z,3.15
2019-05-29T16:30:08.387Z,1.75
2019-05-29T16:32:36.952Z,3.08
2019-05-29T16:35:08.596Z,2.50
2019-05-29T16:37:37.249Z,1.62
2019-05-29T16:40:17.958Z,1.77
2019-05-29T16:42:46.915Z,3.00
2019-05-29T16:45:18.403Z,3.17
2019-05-29T16:47:47.554Z,1.80
2019-05-29T16:50:17.360Z,2.27
2019-05-29T16:52:46.753Z,4.87
2019-05-29T16:55:17.214Z,1.98
2019-05-29T16:57:45.924Z,3.55
2019-05-29T17:00:15.692Z,2.60
2019-05-29T17:02:45.266Z,1.98
2019-05-29T17:05:15.889Z,2.05
2019-05-29T17:07:45.195Z,2.67
2019-05-29T17:10:14.644Z,2.05
2019-05-29T17:12:43.348Z,2.60
2019-05-29T17:15:14.982Z,5.85
2019-05-29T17:17:43.907Z,5.42
2019-05-29T17:20:16.478Z,2.87
2019-05-29T17:22:46.398Z,3.35
2019-05-29T17:25:14.995Z,6.47
2019-05-29T17:27:44.193Z,3.37
2019-05-29T17:30:13.198Z,7.35
2019-05-29T17:32:41.805Z,2.98
2019-05-29T17:35:10.813Z,2.60
2019-05-29T17:37:39.490Z,9.90
2019-05-29T17:40:08.654Z,3.77
2019-05-29T17:42:37.384Z,3.62
2019-05-29T17:45:08.548Z,2.62
2019-05-29T17:47:38.535Z,2.92
2019-05-29T17:50:08.119Z,4.85
2019-05-29T17:52:37.296Z,2.67
2019-05-29T17:55:07.330Z,2.08
2019-05-29T17:57:35.906Z,2.83
2019-05-29T18:00:13.503Z,2.90
2019-05-29T18:02:51.463Z,6.50
2019-05-29T18:05:14.139Z,5.90
2019-05-29T18:07:42.839Z,4.53
2019-05-29T18:10:12.279Z,4.65
2019-05-29T18:12:41.040Z,5.75
2019-05-29T18:15:11.138Z,1.82
2019-05-29T18:17:39.806Z,2.55
2019-05-29T18:20:14.213Z,4.95
2019-05-29T18:25:11.131Z,3.25
2019-05-29T18:27:39.756Z,3.10
2019-05-29T18:30:11.688Z,3.42
2019-05-29T18:32:40.463Z,3.02
2019-05-29T18:35:10.419Z,3.12
2019-05-29T18:37:38.990Z,4.72
2019-05-29T18:40:12.472Z,3.08
2019-05-29T18:42:39.756Z,2.60
2019-05-29T18:45:20.366Z,3.83
2019-05-29T18:47:41.040Z,3.22
2019-05-29T18:50:12.019Z,4.83
2019-05-29T18:52:41.847Z,6.55
2019-05-29T18:55:12.358Z,2.80
2019-05-29T18:57:41.287Z,4.05
2019-05-29T19:00:11.642Z,2.25
2019-05-29T19:02:40.398Z,4.40
2019-05-29T19:05:09.940Z,4.33
2019-05-29T19:07:38.682Z,8.35
2019-05-29T19:10:08.287Z,2.87
2019-05-29T19:12:37.923Z,3.30
2019-05-29T19:15:07.899Z,3.70
2019-05-29T19:17:36.911Z,3.25
2019-05-29T19:20:07.077Z,4.55
2019-05-29T19:22:35.766Z,4.35
2019-05-29T19:25:06.878Z,5.58
2019-05-29T19:27:41.566Z,4.15
2019-05-29T19:30:11.108Z,2.90
2019-05-29T19:32:40.165Z,3.00
2019-05-29T19:35:10.134Z,4.30
2019-05-29T19:37:38.981Z,4.37
2019-05-29T19:40:08.547Z,4.42
2019-05-29T19:42:37.283Z,3.90
2019-05-29T19:45:09.471Z,3.55
2019-05-29T19:47:38.218Z,5.05
2019-05-29T19:50:11.076Z,4.15
2019-05-29T19:52:39.374Z,3.87
2019-05-29T19:55:10.060Z,4.87
2019-05-29T19:57:54.888Z,4.25
2019-05-29T20:00:10.884Z,4.25
2019-05-29T20:02:40.315Z,4.87
2019-05-29T20:05:09.216Z,4.33
2019-05-29T20:07:37.882Z,8.65
2019-05-29T20:10:08.226Z,4.72
2019-05-29T20:12:38.142Z,3.98
2019-05-29T20:15:08.435Z,5.33
2019-05-29T20:17:38.348Z,3.50
2019-05-29T20:20:07.951Z,6.55
2019-05-29T20:22:36.989Z,5.42
2019-05-29T20:25:07.788Z,3.33
2019-05-29T20:27:36.492Z,3.90
2019-05-29T20:30:08.533Z,4.03
2019-05-29T20:32:37.143Z,5.10
2019-05-29T20:35:07.604Z,4.58
2019-05-29T20:37:36.532Z,4.10
2019-05-29T20:40:08.313Z,3.98
2019-05-29T20:42:37.003Z,3.92
2019-05-29T20:45:07.949Z,5.40
2019-05-29T20:47:38.012Z,3.35
2019-05-29T20:50:08.188Z,3.70
2019-05-29T20:52:37.358Z,5.97
2019-05-29T20:55:08.300Z,3.62
2019-05-29T20:57:38.031Z,3.40
2019-05-29T21:00:10.277Z,3.67
2019-05-29T21:02:40.406Z,4.70
2019-05-29T21:05:09.880Z,3.20
2019-05-29T21:07:38.918Z,3.72
2019-05-29T21:10:08.692Z,4.33
2019-05-29T21:12:37.910Z,4.08
2019-05-29T21:15:08.131Z,4.15
2019-05-29T21:17:37.900Z,4.87
2019-05-29T21:20:08.203Z,6.35
2019-05-29T21:22:36.783Z,3.22
2019-05-29T21:25:13.988Z,4.72
2019-05-29T21:27:43.190Z,4.30
2019-05-29T21:30:11.245Z,5.25
2019-05-29T21:32:40.269Z,4.60
2019-05-29T21:35:11.650Z,5.95
2019-05-29T21:37:40.412Z,3.55
2019-05-29T21:40:09.520Z,5.37
2019-05-29T21:42:38.509Z,3.75
2019-05-29T21:45:08.030Z,4.95
2019-05-29T21:47:37.329Z,3.80
2019-05-29T21:50:07.800Z,4.08
2019-05-29T21:52:37.503Z,6.03
2019-05-29T21:55:07.705Z,4.70
2019-05-29T21:57:37.701Z,6.62
2019-05-29T22:00:12.758Z,4.42
2019-05-29T22:02:42.294Z,5.70
2019-05-29T22:05:11.944Z,5.35
2019-05-29T22:07:40.745Z,5.67
2019-05-29T22:10:10.501Z,4.28
2019-05-29T22:12:39.279Z,4.28
2019-05-29T22:15:10.152Z,4.37
2019-05-29T22:17:38.966Z,3.80
2019-05-29T22:20:09.765Z,4.10
2019-05-29T22:22:39.496Z,4.10
2019-05-29T22:25:08.945Z,3.45
2019-05-29T22:27:38.055Z,6.03
2019-05-29T22:30:08.686Z,5.17
2019-05-29T22:32:37.373Z,3.60
2019-05-29T22:35:08.331Z,3.85
2019-05-29T22:37:37.108Z,4.60
2019-05-29T22:40:08.510Z,6.28
2019-05-29T22:42:37.160Z,3.85
2019-05-29T22:45:07.853Z,4.28
2019-05-29T22:47:37.644Z,4.33
2019-05-29T22:50:07.387Z,3.77
2019-05-29T22:52:36.133Z,4.60
2019-05-29T22:55:06.925Z,3.10
2019-05-29T22:57:36.922Z,5.62
2019-05-29T23:00:07.439Z,4.22
2019-05-29T23:02:36.114Z,3.55
2019-05-29T23:05:07.541Z,4.25
2019-05-29T23:07:36.759Z,2.85
2019-05-29T23:10:10.821Z,3.67
2019-05-29T23:12:39.487Z,7.15
2019-05-29T23:15:08.651Z,4.15
2019-05-29T23:17:38.526Z,2.17
2019-05-29T23:20:11.179Z,2.72
2019-05-29T23:22:40.182Z,2.45
2019-05-29T23:25:09.329Z,3.52
2019-05-29T23:27:37.976Z,3.25
2019-05-29T23:30:11.383Z,2.45
2019-05-29T23:32:39.974Z,2.70
2019-05-29T23:35:12.382Z,4.62
2019-05-29T23:37:42.387Z,2.12
2019-05-29T23:40:16.394Z,2.27
2019-05-29T23:42:45.594Z,2.70
2019-05-29T23:45:16.329Z,3.17
2019-05-29T23:47:45.306Z,5.95
2019-05-29T23:50:14.339Z,3.50
2019-05-29T23:52:42.970Z,1.92
2019-05-29T23:55:11.895Z,2.37
2019-05-29T23:57:40.515Z,2.10
